createdAt,value
2022-10-19T00:01:38.809Z,99235.09
2022-10-19T00:04:08.773Z,99240.34
2022-10-19T00:06:40.248Z,99231.44
2022-10-19T00:09:12.910Z,99232.09
2022-10-19T00:11:45.461Z,99219.59
2022-10-19T00:14:17.718Z,99229.13
2022-10-19T00:16:49.909Z,99228.44
2022-10-19T00:19:22.697Z,99228.13
2022-10-19T00:21:53.360Z,99234.00
2022-10-19T00:24:23.019Z,99220.25
2022-10-19T00:26:51.579Z,99218.59
2022-10-19T00:29:20.122Z,99215.16
2022-10-19T00:31:51.050Z,99215.97
2022-10-19T00:34:20.141Z,99213.34
2022-10-19T00:36:49.109Z,99213.16
2022-10-19T00:39:21.171Z,99213.81
2022-10-19T00:41:50.196Z,99206.75
2022-10-19T00:44:59.489Z,99202.28
2022-10-19T00:47:28.464Z,99208.72
2022-10-19T00:50:00.025Z,99209.38
2022-10-19T00:52:30.243Z,99201.47
2022-10-19T00:55:02.306Z,99204.72
2022-10-19T00:57:33.536Z,99205.38
2022-10-19T01:00:08.205Z,99203.56
2022-10-19T01:02:37.840Z,99203.09
2022-10-19T01:05:08.501Z,99204.56
2022-10-19T01:07:37.332Z,99199.31
2022-10-19T01:10:09.768Z,99199.47
2022-10-19T01:13:16.383Z,99203.56
2022-10-19T01:16:01.629Z,99199.13
2022-10-19T01:18:44.910Z,99203.22
2022-10-19T01:21:24.547Z,99197.97
2022-10-19T01:24:50.619Z,99196.13
2022-10-19T01:28:01.296Z,99199.41
2022-10-19T01:30:47.799Z,99190.53
2022-10-19T01:33:38.726Z,99199.22
2022-10-19T01:36:23.196Z,99186.88
2022-10-19T01:39:01.454Z,99198.41
2022-10-19T01:41:38.736Z,99187.09
2022-10-19T01:44:17.701Z,99190.53
2022-10-19T01:46:58.745Z,99192.34
2022-10-19T01:49:36.530Z,99190.69
2022-10-19T01:52:09.554Z,99187.09
2022-10-19T01:54:44.292Z,99189.50
2022-10-19T01:57:18.506Z,99182.66
2022-10-19T01:59:50.893Z,99181.81
2022-10-19T02:02:23.240Z,99178.38
2022-10-19T02:04:54.226Z,99176.19
2022-10-19T02:07:25.983Z,99159.59
2022-10-19T02:09:55.139Z,99161.25
2022-10-19T02:12:25.322Z,99157.59
2022-10-19T02:14:59.405Z,99153.16
2022-10-19T02:17:36.779Z,99159.41
2022-10-19T02:20:07.005Z,99160.88
2022-10-19T02:22:35.729Z,99151.34
2022-10-19T02:25:04.950Z,99153.97
2022-10-19T02:27:34.061Z,99148.88
2022-10-19T02:30:02.790Z,99148.72
2022-10-19T02:32:33.256Z,99146.09
2022-10-19T02:35:03.327Z,99145.94
2022-10-19T02:37:32.453Z,99143.09
2022-10-19T02:40:01.327Z,99146.38
2022-10-19T02:42:35.890Z,99141.13
2022-10-19T02:45:14.462Z,99130.59
2022-10-19T02:47:53.153Z,99134.22
2022-10-19T02:50:24.000Z,99142.09
2022-10-19T02:52:53.426Z,99137.22
2022-10-19T02:55:22.579Z,99128.66
2022-10-19T02:57:54.302Z,99128.03
2022-10-19T03:00:23.827Z,99121.16
2022-10-19T03:02:55.018Z,99126.03
2022-10-19T03:05:24.796Z,99131.31
2022-10-19T03:07:53.936Z,99121.44
2022-10-19T03:10:22.939Z,99130.16
2022-10-19T03:12:52.688Z,99132.78
2022-10-19T03:15:25.561Z,99127.31
2022-10-19T03:17:57.726Z,99128.97
2022-10-19T03:20:26.819Z,99139.09
2022-10-19T03:22:55.767Z,99132.88
2022-10-19T03:25:25.161Z,99136.31
2022-10-19T03:27:55.879Z,99129.88
2022-10-19T03:30:25.435Z,99135.13
2022-10-19T03:32:55.595Z,99130.84
2022-10-19T03:35:24.285Z,99127.84
2022-10-19T03:37:53.783Z,99135.38
2022-10-19T03:40:24.323Z,99141.28
2022-10-19T03:42:53.062Z,99130.78
2022-10-19T03:45:22.340Z,99135.84
2022-10-19T03:47:51.278Z,99144.53
2022-10-19T03:50:21.496Z,99140.09
2022-10-19T03:52:51.240Z,99147.19
2022-10-19T03:55:20.309Z,99150.63
2022-10-19T03:57:50.991Z,99150.63
2022-10-19T04:00:20.423Z,99147.81
2022-10-19T04:02:49.289Z,99149.63
2022-10-19T04:05:18.027Z,99140.94
2022-10-19T04:07:48.279Z,99140.31
2022-10-19T04:10:17.914Z,99136.03
2022-10-19T04:12:50.485Z,99129.59
2022-10-19T04:15:22.040Z,99133.84
2022-10-19T04:17:51.192Z,99134.47
2022-10-19T04:20:20.609Z,99128.22
2022-10-19T04:22:51.118Z,99134.47
2022-10-19T04:25:21.311Z,99123.94
2022-10-19T04:27:53.125Z,99125.59
2022-10-19T04:30:23.847Z,99117.88
2022-10-19T04:33:03.675Z,99125.38
2022-10-19T04:35:33.720Z,99127.84
2022-10-19T04:38:05.289Z,99121.59
2022-10-19T04:40:38.831Z,99123.22
2022-10-19T04:43:18.358Z,99122.41
2022-10-19T04:45:48.879Z,99120.41
2022-10-19T04:48:17.650Z,99107.25
2022-10-19T04:50:47.520Z,99116.97
2022-10-19T04:55:55.209Z,99113.50
2022-10-19T04:58:25.520Z,99114.88
2022-10-19T05:00:56.010Z,99116.25
2022-10-19T05:03:25.913Z,99122.13
2022-10-19T05:05:55.901Z,99117.88
2022-10-19T05:08:31.277Z,99115.06
2022-10-19T05:11:04.949Z,99115.44
2022-10-19T05:13:35.384Z,99114.78
2022-10-19T05:16:07.767Z,99111.38
2022-10-19T05:18:38.118Z,99117.78
2022-10-19T05:21:10.151Z,99108.63
2022-10-19T05:23:42.624Z,99114.09
2022-10-19T05:26:15.103Z,99116.06
2022-10-19T05:28:44.318Z,99106.94
2022-10-19T05:31:18.698Z,99109.38
2022-10-19T05:33:49.823Z,99098.69
2022-10-19T05:36:22.414Z,99100.28
2022-10-19T05:38:54.047Z,99093.03
2022-10-19T05:41:25.162Z,99095.69
2022-10-19T05:43:57.071Z,99093.66
2022-10-19T05:46:28.508Z,99085.78
2022-10-19T05:48:59.617Z,99085.78
2022-10-19T05:51:30.043Z,99087.41
2022-10-19T05:54:01.335Z,99099.56
2022-10-19T05:56:33.188Z,99093.28
2022-10-19T05:59:06.880Z,99087.03
2022-10-19T06:01:36.917Z,99088.69
2022-10-19T06:04:07.569Z,99077.97
2022-10-19T06:06:37.683Z,99079.81
2022-10-19T06:09:12.924Z,99077.16
2022-10-19T06:11:45.309Z,99080.41
2022-10-19T06:14:16.827Z,99076.81
2022-10-19T06:16:46.514Z,99081.03
2022-10-19T06:19:17.022Z,99080.25
2022-10-19T06:21:47.328Z,99081.88
2022-10-19T06:24:18.893Z,99079.88
2022-10-19T06:26:48.431Z,99081.31
2022-10-19T06:29:23.823Z,99086.38
2022-10-19T06:31:54.462Z,99082.75
2022-10-19T06:34:23.420Z,99098.38
2022-10-19T06:36:52.640Z,99099.97
2022-10-19T06:39:23.037Z,99110.34
2022-10-19T06:41:56.784Z,99112.97
2022-10-19T06:44:27.648Z,99104.09
2022-10-19T06:46:56.272Z,99101.25
2022-10-19T06:49:26.492Z,99105.53
2022-10-19T06:51:57.438Z,99099.06
2022-10-19T06:54:28.775Z,99103.34
2022-10-19T06:56:58.212Z,99096.09
2022-10-19T06:59:28.693Z,99101.34
2022-10-19T07:02:08.335Z,99098.19
2022-10-19T07:04:38.132Z,99094.09
2022-10-19T07:07:08.953Z,99096.25
2022-10-19T07:09:40.387Z,99097.09
2022-10-19T07:12:11.127Z,99097.09
2022-10-19T07:14:41.331Z,99103.16
2022-10-19T07:17:15.171Z,99102.19
2022-10-19T07:19:44.761Z,99106.44
2022-10-19T07:22:18.640Z,99102.81
2022-10-19T07:24:52.783Z,99108.69
2022-10-19T07:27:22.144Z,99100.00
2022-10-19T07:29:52.571Z,99100.81
2022-10-19T07:32:21.945Z,99104.44
2022-10-19T07:34:51.075Z,99103.44
2022-10-19T07:37:22.308Z,99105.09
2022-10-19T07:39:53.535Z,99109.34
2022-10-19T07:44:52.780Z,99112.41
2022-10-19T07:47:26.227Z,99105.97
2022-10-19T07:52:48.178Z,99109.97
2022-10-19T07:58:46.015Z,99112.16
2022-10-19T08:01:21.158Z,99103.44
2022-10-19T08:06:44.076Z,99095.56
2022-10-19T08:09:33.319Z,99101.81
2022-10-19T08:12:12.369Z,99099.38
2022-10-19T08:14:44.602Z,99100.81
2022-10-19T08:17:17.980Z,99104.09
2022-10-19T08:19:48.871Z,99097.19
2022-10-19T08:22:20.293Z,99107.13
2022-10-19T08:24:50.119Z,99116.69
2022-10-19T08:27:20.884Z,99109.97
2022-10-19T08:29:49.391Z,99115.03
2022-10-19T08:32:19.589Z,99105.47
2022-10-19T08:34:50.910Z,99104.44
2022-10-19T08:37:40.827Z,99101.81
2022-10-19T08:40:22.544Z,99116.16
2022-10-19T08:43:04.492Z,99104.81
2022-10-19T08:45:54.113Z,99103.44
2022-10-19T08:51:16.840Z,99095.91
2022-10-19T08:54:05.892Z,99084.56
2022-10-19T08:59:53.230Z,99072.84
2022-10-19T09:02:47.492Z,99069.22
2022-10-19T09:05:49.758Z,99065.59
2022-10-19T09:08:27.884Z,99074.13
2022-10-19T09:11:01.204Z,99076.31
2022-10-19T09:14:04.345Z,99067.25
2022-10-19T09:16:37.129Z,99071.50
2022-10-19T09:19:23.052Z,99070.28
2022-10-19T09:22:00.889Z,99056.34
2022-10-19T09:24:38.238Z,99063.22
2022-10-19T09:27:21.957Z,99064.41
2022-10-19T09:33:00.544Z,99058.69
2022-10-19T09:35:43.579Z,99054.25
2022-10-19T09:38:20.375Z,99048.81
2022-10-19T09:40:52.035Z,99058.31
2022-10-19T09:43:25.593Z,99053.88
2022-10-19T09:46:07.832Z,99049.44
2022-10-19T09:48:53.139Z,99066.88
2022-10-19T09:51:23.303Z,99059.59
2022-10-19T09:54:09.187Z,99065.69
2022-10-19T09:56:41.804Z,99054.72
2022-10-19T09:59:30.579Z,99061.59
2022-10-19T10:02:20.744Z,99062.59
2022-10-19T10:05:08.031Z,99062.97
2022-10-19T10:07:41.892Z,99063.16
2022-10-19T10:10:28.224Z,99065.78
2022-10-19T10:16:12.169Z,99064.41
2022-10-19T10:21:52.848Z,99059.41
2022-10-19T10:24:24.190Z,99054.78
2022-10-19T10:29:58.721Z,99060.91
2022-10-19T10:32:29.089Z,99057.09
2022-10-19T10:35:05.565Z,99056.09
2022-10-19T10:37:42.463Z,99060.97
2022-10-19T10:40:26.579Z,99054.91
2022-10-19T10:43:03.519Z,99046.00
2022-10-19T10:45:39.324Z,99049.25
2022-10-19T10:48:30.775Z,99040.56
2022-10-19T10:51:02.561Z,99048.25
2022-10-19T10:53:39.974Z,99039.53
2022-10-19T10:56:26.438Z,99039.75
2022-10-19T10:59:06.255Z,99033.00
2022-10-19T11:01:42.661Z,99031.59
2022-10-19T11:04:19.164Z,99032.56
2022-10-19T11:06:56.593Z,99031.16
2022-10-19T11:09:38.815Z,99024.50
2022-10-19T11:12:15.885Z,99014.97
2022-10-19T11:14:51.293Z,99017.22
2022-10-19T11:17:29.374Z,99013.22
2022-10-19T11:19:58.448Z,99010.03
2022-10-19T11:22:37.210Z,99005.19
2022-10-19T11:25:38.009Z,99014.13
2022-10-19T11:28:28.852Z,99001.63
2022-10-19T11:31:12.353Z,99003.03
2022-10-19T11:34:00.633Z,99002.66
2022-10-19T11:37:03.527Z,99005.94
2022-10-19T11:40:08.534Z,98995.19
2022-10-19T11:43:00.389Z,98986.28
2022-10-19T11:45:49.643Z,98979.00
2022-10-19T11:52:16.251Z,98967.69
2022-10-19T11:55:02.690Z,98956.78
2022-10-19T12:00:54.055Z,98952.19
2022-10-19T12:04:06.911Z,98948.34
2022-10-19T12:06:52.738Z,98945.34
2022-10-19T12:09:50.047Z,98937.44
2022-10-19T12:12:33.915Z,98937.44
2022-10-19T12:15:24.889Z,98912.69
2022-10-19T12:18:05.663Z,98909.88
2022-10-19T12:20:43.849Z,98911.69
2022-10-19T12:23:32.842Z,98915.16
2022-10-19T12:31:53.763Z,98891.44
2022-10-19T12:34:55.452Z,98894.50
2022-10-19T12:37:57.405Z,98887.59
2022-10-19T12:40:39.188Z,98895.72
2022-10-19T12:43:23.493Z,98885.97
2022-10-19T12:46:21.992Z,98890.25
2022-10-19T12:50:02.307Z,98885.59
2022-10-19T12:52:45.525Z,98874.03
2022-10-19T12:55:35.107Z,98864.94
2022-10-19T12:58:18.482Z,98861.88
2022-10-19T13:01:02.382Z,98858.03
2022-10-19T13:03:38.751Z,98856.81
2022-10-19T13:06:36.794Z,98857.81
2022-10-19T13:15:56.854Z,98850.50
2022-10-19T13:19:23.485Z,98861.03
2022-10-19T13:22:30.809Z,98873.38
2022-10-19T13:25:29.674Z,98863.81
2022-10-19T13:28:41.022Z,98862.38
2022-10-19T13:31:28.771Z,98854.50
2022-10-19T13:34:11.611Z,98846.59
2022-10-19T13:43:15.946Z,98841.75
2022-10-19T13:45:59.589Z,98846.59
2022-10-19T13:48:55.403Z,98847.59
2022-10-19T13:51:40.119Z,98851.84
2022-10-19T13:54:45.418Z,98836.03
2022-10-19T13:57:51.502Z,98834.00
2022-10-19T14:00:25.462Z,98829.16
2022-10-19T14:03:21.213Z,98838.47
2022-10-19T14:06:13.845Z,98835.66
2022-10-19T14:09:23.280Z,98825.28
2022-10-19T14:11:59.297Z,98826.94
2022-10-19T14:14:45.350Z,98828.34
2022-10-19T14:17:19.813Z,98816.59
2022-10-19T14:19:53.044Z,98819.22
2022-10-19T14:22:31.641Z,98815.41
2022-10-19T14:25:10.853Z,98810.72
2022-10-19T14:27:41.877Z,98805.28
2022-10-19T14:30:27.875Z,98811.16
2022-10-19T14:33:02.305Z,98802.44
2022-10-19T14:35:38.811Z,98804.25
2022-10-19T14:38:23.597Z,98804.88
2022-10-19T14:43:37.654Z,98802.25
2022-10-19T14:46:18.218Z,98795.94
2022-10-19T14:48:49.371Z,98797.78
2022-10-19T14:51:39.978Z,98802.03
2022-10-19T14:54:29.217Z,98791.69
2022-10-19T14:57:04.620Z,98779.72
2022-10-19T15:02:46.552Z,98772.03
2022-10-19T15:05:39.548Z,98770.22
2022-10-19T15:08:14.437Z,98765.75
2022-10-19T15:11:02.214Z,98770.41
2022-10-19T15:13:42.348Z,98766.94
2022-10-19T15:29:27.011Z,98770.81
2022-10-19T15:32:29.888Z,98767.34
2022-10-19T15:35:43.467Z,98750.94
2022-10-19T15:38:49.088Z,98752.94
2022-10-19T15:48:55.290Z,98743.22
2022-10-19T15:51:56.448Z,98740.59
2022-10-19T15:54:26.888Z,98744.03
2022-10-19T15:57:09.667Z,98737.16
2022-10-19T16:06:13.528Z,98729.66
2022-10-19T16:09:51.870Z,98728.81
2022-10-19T16:27:45.431Z,98720.34
2022-10-19T16:37:07.862Z,98710.81
2022-10-19T16:54:12.782Z,98698.44
2022-10-19T16:56:47.183Z,98705.91
2022-10-19T16:59:55.905Z,98707.56
2022-10-19T17:02:27.945Z,98708.56
2022-10-19T17:04:57.922Z,98708.38
2022-10-19T17:07:26.496Z,98707.75
2022-10-19T17:09:57.492Z,98717.69
2022-10-19T17:12:26.720Z,98711.81
2022-10-19T17:15:02.973Z,98710.19
2022-10-19T17:17:44.164Z,98713.41
2022-10-19T17:20:15.836Z,98707.13
2022-10-19T17:22:44.459Z,98719.31
2022-10-19T17:25:14.709Z,98712.41
2022-10-19T17:27:43.357Z,98707.75
2022-10-19T17:30:12.741Z,98707.31
2022-10-19T17:32:41.362Z,98708.53
2022-10-19T17:35:10.407Z,98705.09
2022-10-19T17:37:39.162Z,98709.53
2022-10-19T17:40:09.883Z,98711.56
2022-10-19T17:42:39.806Z,98716.84
2022-10-19T17:45:10.226Z,98718.88
2022-10-19T17:47:38.840Z,98720.88
2022-10-19T17:50:08.466Z,98711.16
2022-10-19T17:52:37.935Z,98705.06
2022-10-19T17:55:13.147Z,98706.06
2022-10-19T17:57:43.565Z,98700.81
2022-10-19T18:00:14.233Z,98697.75
2022-10-19T18:02:46.095Z,98688.03
2022-10-19T18:05:14.700Z,98694.53
2022-10-19T18:07:45.888Z,98693.72
2022-10-19T18:10:16.421Z,98688.84
2022-10-19T18:12:46.380Z,98692.88
2022-10-19T18:15:15.238Z,98687.78
2022-10-19T18:17:43.979Z,98691.00
2022-10-19T18:20:13.761Z,98689.78
2022-10-19T18:25:21.792Z,98696.47
2022-10-19T18:27:57.941Z,98702.56
2022-10-19T18:30:26.600Z,98698.94
2022-10-19T18:32:55.166Z,98694.06
2022-10-19T18:35:24.235Z,98690.78
2022-10-19T18:37:52.884Z,98691.63
2022-10-19T18:40:21.434Z,98693.66
2022-10-19T18:42:50.893Z,98690.78
2022-10-19T18:45:21.653Z,98678.66
2022-10-19T18:47:51.015Z,98670.53
2022-10-19T18:50:19.811Z,98667.91
2022-10-19T18:52:48.519Z,98664.84
2022-10-19T18:55:17.406Z,98664.44
2022-10-19T18:57:46.329Z,98664.00
2022-10-19T19:00:16.795Z,98666.22
2022-10-19T19:02:53.638Z,98667.25
2022-10-19T19:05:23.890Z,98657.72
2022-10-19T19:07:52.458Z,98658.72
2022-10-19T19:10:21.609Z,98653.47
2022-10-19T19:12:52.913Z,98649.59
2022-10-19T19:15:21.672Z,98649.78
2022-10-19T19:17:57.970Z,98646.56
2022-10-19T19:20:26.679Z,98642.94
2022-10-19T19:22:55.405Z,98642.53
2022-10-19T19:25:23.962Z,98646.19
2022-10-19T19:27:52.497Z,98644.56
2022-10-19T19:30:21.135Z,98631.59
2022-10-19T19:32:51.694Z,98636.47
2022-10-19T19:35:20.202Z,98637.69
2022-10-19T19:37:49.854Z,98629.34
2022-10-19T19:40:18.717Z,98622.28
2022-10-19T19:42:47.178Z,98625.91
2022-10-19T19:45:15.890Z,98641.50
2022-10-19T19:47:45.277Z,98631.19
2022-10-19T19:50:15.155Z,98621.84
2022-10-19T19:52:43.745Z,98621.84
2022-10-19T19:55:12.137Z,98617.38
2022-10-19T19:57:40.660Z,98623.66
2022-10-19T20:00:11.102Z,98622.66
2022-10-19T20:02:39.701Z,98618.59
2022-10-19T20:05:09.052Z,98624.84
2022-10-19T20:07:39.783Z,98624.03
2022-10-19T20:10:09.991Z,98622.66
2022-10-19T20:12:39.256Z,98627.91
2022-10-19T20:15:09.117Z,98621.84
2022-10-19T20:17:37.838Z,98616.75
2022-10-19T20:20:08.564Z,98615.53
2022-10-19T20:22:39.212Z,98608.22
2022-10-19T20:25:09.141Z,98618.53
2022-10-19T20:27:38.223Z,98621.38
2022-10-19T20:30:09.549Z,98624.19
2022-10-19T20:32:40.254Z,98620.75
2022-10-19T20:35:10.755Z,98623.59
2022-10-19T20:37:40.826Z,98624.41
2022-10-19T20:40:13.378Z,98627.84
2022-10-19T20:42:42.511Z,98624.19
2022-10-19T20:45:13.174Z,98614.31
2022-10-19T20:47:42.213Z,98622.38
2022-10-19T20:50:12.308Z,98629.47
2022-10-19T20:52:42.503Z,98624.41
2022-10-19T20:55:12.110Z,98618.94
2022-10-19T20:57:40.716Z,98614.50
2022-10-19T21:00:11.058Z,98611.06
2022-10-19T21:02:40.034Z,98607.41
2022-10-19T21:05:10.553Z,98607.00
2022-10-19T21:07:39.158Z,98599.91
2022-10-19T21:10:10.872Z,98593.03
2022-10-19T21:12:39.454Z,98593.03
2022-10-19T21:15:09.940Z,98588.59
2022-10-19T21:17:38.554Z,98592.44
2022-10-19T21:20:10.087Z,98591.41
2022-10-19T21:22:41.496Z,98586.75
2022-10-19T21:25:12.798Z,98597.06
2022-10-19T21:27:41.306Z,98595.44
2022-10-19T21:30:11.213Z,98589.16
2022-10-19T21:32:40.353Z,98596.06
2022-10-19T21:35:10.103Z,98583.47
2022-10-19T21:37:38.724Z,98578.44
2022-10-19T21:40:09.442Z,98582.69
2022-10-19T21:42:40.072Z,98586.13
2022-10-19T21:45:29.298Z,98587.56
2022-10-19T21:47:59.773Z,98569.16
2022-10-19T21:50:29.082Z,98576.00
2022-10-19T21:52:58.097Z,98584.94
2022-10-19T21:55:26.740Z,98573.38
2022-10-19T21:57:56.734Z,98564.72
2022-10-19T22:00:25.519Z,98569.97
2022-10-19T22:02:54.063Z,98571.16
2022-10-19T22:05:22.844Z,98560.63
2022-10-19T22:07:51.385Z,98566.28
2022-10-19T22:10:20.905Z,98567.09
2022-10-19T22:12:49.594Z,98558.41
2022-10-19T22:15:20.815Z,98544.66
2022-10-19T22:17:51.788Z,98544.81
2022-10-19T22:20:20.519Z,98539.56
2022-10-19T22:22:51.540Z,98540.38
2022-10-19T22:25:23.356Z,98535.31
2022-10-19T22:27:51.821Z,98533.50
2022-10-19T22:30:21.737Z,98536.94
2022-10-19T22:32:50.357Z,98530.88
2022-10-19T22:35:19.121Z,98512.47
2022-10-19T22:37:47.677Z,98512.47
2022-10-19T22:40:17.549Z,98507.19
2022-10-19T22:42:46.467Z,98496.69
2022-10-19T22:45:15.150Z,98489.00
2022-10-19T22:47:45.997Z,98484.94
2022-10-19T22:50:14.592Z,98490.19
2022-10-19T22:52:43.587Z,98488.59
2022-10-19T22:55:12.564Z,98487.38
2022-10-19T22:57:41.111Z,98489.00
2022-10-19T23:00:11.671Z,98489.81
2022-10-19T23:02:43.071Z,98479.88
2022-10-19T23:05:13.597Z,98471.38
2022-10-19T23:07:42.484Z,98482.50
2022-10-19T23:10:11.732Z,98488.78
2022-10-19T23:12:40.459Z,98485.72
2022-10-19T23:15:11.684Z,98481.84
2022-10-19T23:17:40.206Z,98475.59
2022-10-19T23:20:10.519Z,98475.00
2022-10-19T23:22:41.025Z,98475.59
2022-10-19T23:25:10.627Z,98479.22
2022-10-19T23:27:39.365Z,98486.13
2022-10-19T23:30:09.793Z,98472.78
2022-10-19T23:32:41.030Z,98475.22
2022-10-19T23:35:10.327Z,98481.69
2022-10-19T23:37:41.122Z,98475.59
2022-10-19T23:40:11.453Z,98464.50
2022-10-19T23:42:40.427Z,98464.06
2022-10-19T23:45:10.513Z,98457.00
2022-10-19T23:47:39.225Z,98457.38
2022-10-19T23:50:09.122Z,98459.00
2022-10-19T23:52:38.318Z,98453.13
2022-10-19T23:55:12.174Z,98443.63
2022-10-19T23:57:40.746Z,98447.25
